AirNav   Air Wisconsin Up To $57,000 Bonus
 
 747 users online  

2E2 Sharpe's Strip Airport
Emmett, Michigan, USA

GOING TO EMMETT?


FAA INFORMATION EFFECTIVE 10 OCTOBER 2019

Location

FAA Identifier: 2E2
Lat/Long: 42-57-05.8000N 082-46-33.3000W
42-57.096667N 082-46.555000W
42.9516111,-82.7759167
(estimated)
Elevation: 781 ft. / 238 m (estimated)
From city: 2 miles S of EMMETT, MI
Time zone: UTC -4 (UTC -5 during Standard Time)
Zip code: 48041

Airport Operations

Airport use: Open to the public
Activation date: 11/2003
Control tower: no
ARTCC: CLEVELAND CENTER
FSS: LANSING FLIGHT SERVICE STATION
NOTAMs facility: LAN (NOTAM-D service available)
Attendance: IREG
Wind indicator: yes
Segmented circle: no

Airport Communications

CTAF: 122.9
WX AWOS-3 at PHN (11 nm E): 118.375 (810-364-7787)

Nearby radio navigation aids

NDB name  Hdg/Dist  Freq  Var  ID
PHURN317/10.233207WPH .--. ....

Airport Services

Runway Information

Runway 18/36

Dimensions: 2700 x 90 ft. / 823 x 27 m
Surface: turf, in fair condition
Runway edge markings: RWY 36 & DSPLCD THLD MKD WITH 3 FT YELLOW CONES.
RUNWAY 18  RUNWAY 36
Latitude: 42-57.319333N42-56.875000N
Longitude: 082-46.566167W082-46.544500W
Traffic pattern: leftleft
Displaced threshold: 700 ft.no
Obstructions: 27 ft. pline, marked, 100 ft. from runway, 23 ft. left of centerline, 3:1 slope to clear
APCH RATIO 0:1 TO DSPLCD THLD, +46 FT TREES 0 FT DSTC, 96 FT R.
28 ft. trees, 115 ft. right of centerline

Airport Ownership and Management from official FAA records

Ownership: Privately-owned
Owner: VERNON SHARPE
11371 HILL ROAD
RILEY, MI 48041
Phone 810-384-6668
Manager: VERNON SHARPE
11371 HILL ROAD
RILEY, MI 48041
Phone 810-384-6668

Airport Operational Statistics

Aircraft based on the field: 1
Single engine airplanes: 1
    
Aircraft operations: 100/year *
50% transient general aviation
50% local general aviation
* for 12-month period ending 31 December 2018

Additional Remarks

DEER & TURKEYS INVOF ARPT.
FOR IFR CLEARANCE CTC CLEVELAND ARTCC (ZOB) 126.52/285.52 OR CALL ZOB 440-774-0224.
CTC ARPT MGR FOR RWY CONDS WHEN SNOW COVERED 810-384-6668.

Instrument Procedures

There are no published instrument procedures at 2E2.

Some nearby airports with instrument procedures:

KPHN - St Clair County International Airport (11 nm E)
D98 - Romeo State Airport (13 nm SW)
57D - Ray Community Airport (14 nm S)
KMTC - Selfridge Air National Guard Base (20 nm S)
D95 - Dupont-Lapeer Airport (23 nm W)
 
Loc | Ops | Rwys | IFR | FBO | Links
Com | Nav | Svcs | Stats | Notes
Area around 2E2 (Sharpe's Strip Airport)
 
Road maps at: MapQuest Bing Google
 
Aerial photo
WARNING: Photo may not be current or correct
Aerial photo of 2E2 (Sharpe's Strip Airport)
Photo by Vic Adamko
Taken in the Summer of 2004

Do you have a better or more recent aerial photo of Sharpe's Strip Airport that you would like to share? If so, please send us your photo.

 
Sectional chart

 
Airport distance calculator
Flying to Sharpe's Strip Airport? Find the distance to fly.

From to 2E2

Sunrise and sunset
Times for 20-Oct-2019
 Local
(UTC-4)
 Zulu
(UTC)
Morning civil twilight07:2311:23
Sunrise07:5211:52
Sunset18:4022:40
Evening civil twilight19:0923:09

Current date and time
Zulu (UTC)  20-Oct-2019 13:13:02
Local (UTC-4)  20-Oct-2019 09:13:02
 
METAR
KPHN 
12nm E 
201256Z AUTO 00000KT 4SM BR BKN110 08/07 A2986 RMK AO2
KMTC 
20nm S 
201256Z 00000KT 10SM BKN100 BKN150 10/10 A2983 RMK AO2A SLP108 T00960096 $
CYZR 
21nm E 
201200Z AUTO 17005KT 8SM FEW120 SCT140 08/07 A2982 RMK RVR MISG SLP103
KD95 
23nm W 
201256Z AUTO 00000KT 7SM OVC080 09/09 A2985 RMK AO2 T00850085
TAF
KMTC 
20nm S 
200900Z 2009/2115 VRB06KT 9999 BKN150 QNH2978INS TEMPO 2010/2013 8000 BR BECMG 2014/2015 VRB06KT 9999 BKN080 QNH2985INS BECMG 2023/2024 04006KT 9999 FEW030 QNH2992INS BECMG 2111/2112 VRB06KT 9999 BKN015 QNH2992INS TEMPO 2112/2115 8000 BR OVC010 TX17/2021Z TN07/2012Z LAST NO AMDS AFT 2009 NEXT 2011
CYZR 
21nm E 
200739Z 2008/2020 16008KT P6SM SCT160 BKN200 PROB30 2008/2014 11/2SM BR BKN004 OVC160 FM201400 20008KT P6SM SCT100 FM201800 36005KT P6SM FEW080 BECMG 2018/2020 03008KT RMK FCST BASED ON AUTO OBS. NXT FCST BY 201400Z
NOTAMs
Click for the latest NOTAMs
NOTAMs are issued by the DoD/FAA and will open in a separate window not controlled by AirNav.

 

 
 

Would you like to see your business listed on this page?

 If your business provides an interesting product or service to pilots, flight crews, aircraft, or users of the Sharpe's Strip Airport, you should consider listing it here.  To start the listing process, click on the button below
 
Add a business
 

Other Pages about Sharpe's Strip Airport

Page from the Michigan Airport Directory (PDF)
 
Update a link
 
Copyright © AirNav, LLC. All rights reserved. Privacy Policy  Contact